sensor_id;sensor_type;location;lat;lon;timestamp;P1;durP1;ratioP1;P2;durP2;ratioP2
60354;SDS011;46198;51.464;-0.066;2022-09-04T00:02:43;12.68;;;7.88;;
60354;SDS011;46198;51.464;-0.066;2022-09-04T00:05:22;12.27;;;8.75;;
60354;SDS011;46198;51.464;-0.066;2022-09-04T00:08:04;14.30;;;8.55;;
60354;SDS011;46198;51.464;-0.066;2022-09-04T00:10:54;12.27;;;8.32;;
60354;SDS011;46198;51.464;-0.066;2022-09-04T00:13:30;12.48;;;8.55;;
60354;SDS011;46198;51.464;-0.066;2022-09-04T00:16:04;14.00;;;8.23;;
60354;SDS011;46198;51.464;-0.066;2022-09-04T00:18:36;15.20;;;8.40;;
60354;SDS011;46198;51.464;-0.066;2022-09-04T00:21:10;13.98;;;9.38;;
60354;SDS011;46198;51.464;-0.066;2022-09-04T00:23:46;14.68;;;9.13;;
60354;SDS011;46198;51.464;-0.066;2022-09-04T00:26:21;14.57;;;8.98;;
60354;SDS011;46198;51.464;-0.066;2022-09-04T00:28:59;16.20;;;9.55;;
60354;SDS011;46198;51.464;-0.066;2022-09-04T00:31:38;14.30;;;9.02;;
60354;SDS011;46198;51.464;-0.066;2022-09-04T00:34:15;13.95;;;9.20;;
60354;SDS011;46198;51.464;-0.066;2022-09-04T00:36:55;12.68;;;9.63;;
60354;SDS011;46198;51.464;-0.066;2022-09-04T00:39:32;14.20;;;9.90;;
60354;SDS011;46198;51.464;-0.066;2022-09-04T00:42:08;15.50;;;9.77;;
60354;SDS011;46198;51.464;-0.066;2022-09-04T00:44:59;14.75;;;10.38;;
60354;SDS011;46198;51.464;-0.066;2022-09-04T00:47:46;12.60;;;9.68;;
60354;SDS011;46198;51.464;-0.066;2022-09-04T00:50:30;14.23;;;10.40;;
60354;SDS011;46198;51.464;-0.066;2022-09-04T00:53:15;15.90;;;9.95;;
60354;SDS011;46198;51.464;-0.066;2022-09-04T00:56:06;14.80;;;9.52;;
60354;SDS011;46198;51.464;-0.066;2022-09-04T00:58:54;16.30;;;10.60;;
60354;SDS011;46198;51.464;-0.066;2022-09-04T01:01:32;15.65;;;10.40;;
60354;SDS011;46198;51.464;-0.066;2022-09-04T01:04:11;14.35;;;9.88;;
60354;SDS011;46198;51.464;-0.066;2022-09-04T01:06:49;13.93;;;10.63;;
60354;SDS011;46198;51.464;-0.066;2022-09-04T01:12:22;16.10;;;10.93;;
60354;SDS011;46198;51.464;-0.066;2022-09-04T01:15:00;15.57;;;10.23;;
60354;SDS011;46198;51.464;-0.066;2022-09-04T01:17:43;16.13;;;10.75;;
60354;SDS011;46198;51.464;-0.066;2022-09-04T01:20:20;17.30;;;10.18;;
60354;SDS011;46198;51.464;-0.066;2022-09-04T01:23:09;22.05;;;10.27;;
60354;SDS011;46198;51.464;-0.066;2022-09-04T01:28:41;15.90;;;10.93;;
60354;SDS011;46198;51.464;-0.066;2022-09-04T01:33:50;15.25;;;11.00;;
60354;SDS011;46198;51.464;-0.066;2022-09-04T01:36:29;14.50;;;11.07;;
60354;SDS011;46198;51.464;-0.066;2022-09-04T01:39:03;17.17;;;10.52;;
60354;SDS011;46198;51.464;-0.066;2022-09-04T01:41:33;15.95;;;10.77;;
60354;SDS011;46198;51.464;-0.066;2022-09-04T01:44:06;13.15;;;10.05;;
60354;SDS011;46198;51.464;-0.066;2022-09-04T01:46:40;16.77;;;9.93;;
60354;SDS011;46198;51.464;-0.066;2022-09-04T01:49:20;15.30;;;10.70;;
60354;SDS011;46198;51.464;-0.066;2022-09-04T01:55:07;17.70;;;10.68;;
60354;SDS011;46198;51.464;-0.066;2022-09-04T01:57:47;15.63;;;10.75;;
60354;SDS011;46198;51.464;-0.066;2022-09-04T02:00:26;15.02;;;10.60;;
60354;SDS011;46198;51.464;-0.066;2022-09-04T02:03:01;18.17;;;11.00;;
60354;SDS011;46198;51.464;-0.066;2022-09-04T02:05:37;14.13;;;12.00;;
60354;SDS011;46198;51.464;-0.066;2022-09-04T02:08:19;18.17;;;12.48;;
60354;SDS011;46198;51.464;-0.066;2022-09-04T02:10:59;16.25;;;11.73;;
60354;SDS011;46198;51.464;-0.066;2022-09-04T02:13:39;18.38;;;12.77;;
60354;SDS011;46198;51.464;-0.066;2022-09-04T02:18:49;19.15;;;13.10;;
60354;SDS011;46198;51.464;-0.066;2022-09-04T02:21:32;19.42;;;13.68;;
60354;SDS011;46198;51.464;-0.066;2022-09-04T02:24:05;23.17;;;15.82;;
60354;SDS011;46198;51.464;-0.066;2022-09-04T02:26:46;23.50;;;14.77;;
60354;SDS011;46198;51.464;-0.066;2022-09-04T02:29:23;24.13;;;15.55;;
60354;SDS011;46198;51.464;-0.066;2022-09-04T02:32:00;23.27;;;16.25;;
60354;SDS011;46198;51.464;-0.066;2022-09-04T02:34:36;23.00;;;16.20;;
60354;SDS011;46198;51.464;-0.066;2022-09-04T02:37:11;23.55;;;17.60;;
60354;SDS011;46198;51.464;-0.066;2022-09-04T02:39:49;29.25;;;19.05;;
60354;SDS011;46198;51.464;-0.066;2022-09-04T02:42:27;30.63;;;19.55;;
60354;SDS011;46198;51.464;-0.066;2022-09-04T02:45:12;33.05;;;20.83;;
60354;SDS011;46198;51.464;-0.066;2022-09-04T02:47:51;27.42;;;19.60;;
60354;SDS011;46198;51.464;-0.066;2022-09-04T02:50:35;31.83;;;20.63;;
60354;SDS011;46198;51.464;-0.066;2022-09-04T02:53:15;30.48;;;20.88;;
60354;SDS011;46198;51.464;-0.066;2022-09-04T02:55:55;31.52;;;21.30;;
60354;SDS011;46198;51.464;-0.066;2022-09-04T02:58:36;31.20;;;20.77;;
60354;SDS011;46198;51.464;-0.066;2022-09-04T03:01:21;31.42;;;19.63;;
60354;SDS011;46198;51.464;-0.066;2022-09-04T03:03:55;37.35;;;22.35;;
60354;SDS011;46198;51.464;-0.066;2022-09-04T03:06:39;34.25;;;21.60;;
60354;SDS011;46198;51.464;-0.066;2022-09-04T03:09:14;31.10;;;20.27;;
60354;SDS011;46198;51.464;-0.066;2022-09-04T03:11:49;32.45;;;21.02;;
60354;SDS011;46198;51.464;-0.066;2022-09-04T03:14:23;35.83;;;22.60;;
60354;SDS011;46198;51.464;-0.066;2022-09-04T03:17:02;36.83;;;22.52;;
60354;SDS011;46198;51.464;-0.066;2022-09-04T03:19:38;38.92;;;23.85;;
60354;SDS011;46198;51.464;-0.066;2022-09-04T03:22:15;40.58;;;24.83;;
60354;SDS011;46198;51.464;-0.066;2022-09-04T03:24:58;37.40;;;23.50;;
60354;SDS011;46198;51.464;-0.066;2022-09-04T03:27:32;41.28;;;24.70;;
60354;SDS011;46198;51.464;-0.066;2022-09-04T03:30:03;40.60;;;24.25;;
60354;SDS011;46198;51.464;-0.066;2022-09-04T03:32:37;42.58;;;26.10;;
60354;SDS011;46198;51.464;-0.066;2022-09-04T03:35:14;37.35;;;22.85;;
60354;SDS011;46198;51.464;-0.066;2022-09-04T03:37:51;39.50;;;25.88;;
60354;SDS011;46198;51.464;-0.066;2022-09-04T03:40:44;41.70;;;25.70;;
60354;SDS011;46198;51.464;-0.066;2022-09-04T03:43:35;44.28;;;25.15;;
60354;SDS011;46198;51.464;-0.066;2022-09-04T03:46:28;41.90;;;25.65;;
60354;SDS011;46198;51.464;-0.066;2022-09-04T03:49:10;45.88;;;26.85;;
60354;SDS011;46198;51.464;-0.066;2022-09-04T03:51:49;43.37;;;26.03;;
60354;SDS011;46198;51.464;-0.066;2022-09-04T03:54:29;41.50;;;25.77;;
60354;SDS011;46198;51.464;-0.066;2022-09-04T03:57:16;39.85;;;24.30;;
60354;SDS011;46198;51.464;-0.066;2022-09-04T03:59:57;43.28;;;25.92;;
60354;SDS011;46198;51.464;-0.066;2022-09-04T04:02:45;40.97;;;26.17;;
60354;SDS011;46198;51.464;-0.066;2022-09-04T04:05:25;42.40;;;24.67;;
60354;SDS011;46198;51.464;-0.066;2022-09-04T04:08:05;39.95;;;25.42;;
60354;SDS011;46198;51.464;-0.066;2022-09-04T04:10:47;42.63;;;24.63;;
60354;SDS011;46198;51.464;-0.066;2022-09-04T04:13:33;41.10;;;27.27;;
60354;SDS011;46198;51.464;-0.066;2022-09-04T04:16:23;45.58;;;25.23;;
60354;SDS011;46198;51.464;-0.066;2022-09-04T04:19:10;42.65;;;25.40;;
60354;SDS011;46198;51.464;-0.066;2022-09-04T04:22:07;41.05;;;25.70;;
60354;SDS011;46198;51.464;-0.066;2022-09-04T04:24:54;39.70;;;25.45;;
60354;SDS011;46198;51.464;-0.066;2022-09-04T04:27:41;41.90;;;27.15;;
60354;SDS011;46198;51.464;-0.066;2022-09-04T04:30:20;43.17;;;25.75;;
60354;SDS011;46198;51.464;-0.066;2022-09-04T04:32:58;37.13;;;23.55;;
60354;SDS011;46198;51.464;-0.066;2022-09-04T04:35:43;39.20;;;24.67;;
60354;SDS011;46198;51.464;-0.066;2022-09-04T04:38:29;45.35;;;25.73;;
60354;SDS011;46198;51.464;-0.066;2022-09-04T04:44:21;41.30;;;24.67;;
60354;SDS011;46198;51.464;-0.066;2022-09-04T04:47:15;38.47;;;23.63;;
60354;SDS011;46198;51.464;-0.066;2022-09-04T04:50:03;42.00;;;24.17;;
60354;SDS011;46198;51.464;-0.066;2022-09-04T04:52:41;41.05;;;25.45;;
60354;SDS011;46198;51.464;-0.066;2022-09-04T04:55:21;43.22;;;25.02;;
60354;SDS011;46198;51.464;-0.066;2022-09-04T04:58:17;43.78;;;24.60;;
60354;SDS011;46198;51.464;-0.066;2022-09-04T05:00:54;41.45;;;24.77;;
60354;SDS011;46198;51.464;-0.066;2022-09-04T05:03:32;39.75;;;24.25;;
60354;SDS011;46198;51.464;-0.066;2022-09-04T05:06:10;37.28;;;22.23;;
60354;SDS011;46198;51.464;-0.066;2022-09-04T05:08:44;36.65;;;22.88;;
60354;SDS011;46198;51.464;-0.066;2022-09-04T05:11:20;38.17;;;21.50;;
60354;SDS011;46198;51.464;-0.066;2022-09-04T05:13:56;32.00;;;21.60;;
60354;SDS011;46198;51.464;-0.066;2022-09-04T05:16:32;35.53;;;23.48;;
60354;SDS011;46198;51.464;-0.066;2022-09-04T05:19:11;32.30;;;21.38;;
60354;SDS011;46198;51.464;-0.066;2022-09-04T05:21:48;41.90;;;23.23;;
60354;SDS011;46198;51.464;-0.066;2022-09-04T05:24:24;35.17;;;22.25;;
60354;SDS011;46198;51.464;-0.066;2022-09-04T05:27:03;37.13;;;22.08;;
60354;SDS011;46198;51.464;-0.066;2022-09-04T05:29:39;33.13;;;21.20;;
60354;SDS011;46198;51.464;-0.066;2022-09-04T05:32:19;35.33;;;21.35;;
60354;SDS011;46198;51.464;-0.066;2022-09-04T05:34:56;30.98;;;20.60;;
60354;SDS011;46198;51.464;-0.066;2022-09-04T05:37:31;35.45;;;20.35;;
60354;SDS011;46198;51.464;-0.066;2022-09-04T05:40:05;32.53;;;20.38;;
60354;SDS011;46198;51.464;-0.066;2022-09-04T05:42:45;28.95;;;19.45;;
60354;SDS011;46198;51.464;-0.066;2022-09-04T05:45:29;29.27;;;19.13;;
60354;SDS011;46198;51.464;-0.066;2022-09-04T05:48:14;31.40;;;19.63;;
60354;SDS011;46198;51.464;-0.066;2022-09-04T05:50:51;32.33;;;19.52;;
60354;SDS011;46198;51.464;-0.066;2022-09-04T05:59:41;33.28;;;18.40;;
60354;SDS011;46198;51.464;-0.066;2022-09-04T06:05:35;27.27;;;16.95;;
60354;SDS011;46198;51.464;-0.066;2022-09-04T06:08:14;26.52;;;17.25;;
60354;SDS011;46198;51.464;-0.066;2022-09-04T06:10:57;26.95;;;16.92;;
60354;SDS011;46198;51.464;-0.066;2022-09-04T06:19:35;24.80;;;15.38;;
60354;SDS011;46198;51.464;-0.066;2022-09-04T06:22:18;25.17;;;14.50;;
60354;SDS011;46198;51.464;-0.066;2022-09-04T06:25:10;22.88;;;14.88;;
60354;SDS011;46198;51.464;-0.066;2022-09-04T06:27:56;28.08;;;15.52;;
60354;SDS011;46198;51.464;-0.066;2022-09-04T06:30:41;22.05;;;14.52;;
60354;SDS011;46198;51.464;-0.066;2022-09-04T06:36:26;20.05;;;13.38;;
60354;SDS011;46198;51.464;-0.066;2022-09-04T06:42:21;19.08;;;13.23;;
60354;SDS011;46198;51.464;-0.066;2022-09-04T06:45:02;18.63;;;13.43;;
60354;SDS011;46198;51.464;-0.066;2022-09-04T06:47:50;18.50;;;12.02;;
60354;SDS011;46198;51.464;-0.066;2022-09-04T06:50:32;16.08;;;11.13;;
60354;SDS011;46198;51.464;-0.066;2022-09-04T06:53:12;19.67;;;12.90;;
60354;SDS011;46198;51.464;-0.066;2022-09-04T06:56:00;16.80;;;11.90;;
60354;SDS011;46198;51.464;-0.066;2022-09-04T06:58:51;15.48;;;11.32;;
60354;SDS011;46198;51.464;-0.066;2022-09-04T07:01:42;15.65;;;10.55;;
60354;SDS011;46198;51.464;-0.066;2022-09-04T07:04:24;15.45;;;10.15;;
60354;SDS011;46198;51.464;-0.066;2022-09-04T07:07:04;13.85;;;9.48;;
60354;SDS011;46198;51.464;-0.066;2022-09-04T07:09:40;14.07;;;9.45;;
60354;SDS011;46198;51.464;-0.066;2022-09-04T07:12:23;13.75;;;8.38;;
60354;SDS011;46198;51.464;-0.066;2022-09-04T07:17:50;10.55;;;5.43;;
60354;SDS011;46198;51.464;-0.066;2022-09-04T07:20:29;13.00;;;5.18;;
60354;SDS011;46198;51.464;-0.066;2022-09-04T07:25:55;10.18;;;5.00;;
60354;SDS011;46198;51.464;-0.066;2022-09-04T07:28:32;8.35;;;5.28;;
60354;SDS011;46198;51.464;-0.066;2022-09-04T07:33:42;9.40;;;3.47;;
60354;SDS011;46198;51.464;-0.066;2022-09-04T07:36:19;8.30;;;3.50;;
60354;SDS011;46198;51.464;-0.066;2022-09-04T07:38:59;7.80;;;3.20;;
60354;SDS011;46198;51.464;-0.066;2022-09-04T07:41:38;6.20;;;2.80;;
60354;SDS011;46198;51.464;-0.066;2022-09-04T07:44:12;10.23;;;3.40;;
60354;SDS011;46198;51.464;-0.066;2022-09-04T07:46:48;5.45;;;2.92;;
60354;SDS011;46198;51.464;-0.066;2022-09-04T07:49:26;3.75;;;2.80;;
60354;SDS011;46198;51.464;-0.066;2022-09-04T07:52:10;6.47;;;3.05;;
60354;SDS011;46198;51.464;-0.066;2022-09-04T07:54:55;9.48;;;3.10;;
60354;SDS011;46198;51.464;-0.066;2022-09-04T07:57:40;9.93;;;2.70;;
60354;SDS011;46198;51.464;-0.066;2022-09-04T08:00:19;6.72;;;2.78;;
60354;SDS011;46198;51.464;-0.066;2022-09-04T08:02:52;5.43;;;2.40;;
60354;SDS011;46198;51.464;-0.066;2022-09-04T08:05:38;9.45;;;2.60;;
60354;SDS011;46198;51.464;-0.066;2022-09-04T08:08:18;7.85;;;2.50;;
60354;SDS011;46198;51.464;-0.066;2022-09-04T08:11:08;5.20;;;2.38;;
60354;SDS011;46198;51.464;-0.066;2022-09-04T08:13:50;5.60;;;2.60;;
60354;SDS011;46198;51.464;-0.066;2022-09-04T08:16:46;8.23;;;2.72;;
60354;SDS011;46198;51.464;-0.066;2022-09-04T08:19:27;6.32;;;2.72;;
60354;SDS011;46198;51.464;-0.066;2022-09-04T08:22:07;8.25;;;3.00;;
60354;SDS011;46198;51.464;-0.066;2022-09-04T08:24:48;4.93;;;2.08;;
60354;SDS011;46198;51.464;-0.066;2022-09-04T08:27:42;6.53;;;2.13;;
60354;SDS011;46198;51.464;-0.066;2022-09-04T08:30:20;4.10;;;2.28;;
60354;SDS011;46198;51.464;-0.066;2022-09-04T08:35:51;5.88;;;2.03;;
60354;SDS011;46198;51.464;-0.066;2022-09-04T08:54:11;3.90;;;1.60;;
60354;SDS011;46198;51.464;-0.066;2022-09-04T08:57:28;5.88;;;2.28;;
60354;SDS011;46198;51.464;-0.066;2022-09-04T09:00:10;5.88;;;1.92;;
60354;SDS011;46198;51.464;-0.066;2022-09-04T09:06:03;8.43;;;2.50;;
60354;SDS011;46198;51.464;-0.066;2022-09-04T09:09:09;5.20;;;1.85;;
60354;SDS011;46198;51.464;-0.066;2022-09-04T09:18:32;6.85;;;2.08;;
60354;SDS011;46198;51.464;-0.066;2022-09-04T09:21:08;2.60;;;1.63;;
60354;SDS011;46198;51.464;-0.066;2022-09-04T09:26:47;7.13;;;1.98;;
60354;SDS011;46198;51.464;-0.066;2022-09-04T09:32:30;3.08;;;2.20;;
60354;SDS011;46198;51.464;-0.066;2022-09-04T09:38:40;7.85;;;2.42;;
60354;SDS011;46198;51.464;-0.066;2022-09-04T09:41:25;4.65;;;1.75;;
60354;SDS011;46198;51.464;-0.066;2022-09-04T09:53:45;8.48;;;2.30;;
60354;SDS011;46198;51.464;-0.066;2022-09-04T10:02:58;6.00;;;2.40;;
60354;SDS011;46198;51.464;-0.066;2022-09-04T10:09:11;7.60;;;1.80;;
60354;SDS011;46198;51.464;-0.066;2022-09-04T10:18:21;4.97;;;1.92;;
60354;SDS011;46198;51.464;-0.066;2022-09-04T10:24:39;4.13;;;1.90;;
60354;SDS011;46198;51.464;-0.066;2022-09-04T10:27:39;6.85;;;1.90;;
60354;SDS011;46198;51.464;-0.066;2022-09-04T10:30:28;5.05;;;2.00;;
60354;SDS011;46198;51.464;-0.066;2022-09-04T10:33:22;8.15;;;2.00;;
60354;SDS011;46198;51.464;-0.066;2022-09-04T10:36:03;5.32;;;1.90;;
60354;SDS011;46198;51.464;-0.066;2022-09-04T10:38:42;7.40;;;2.53;;
60354;SDS011;46198;51.464;-0.066;2022-09-04T10:44:39;6.45;;;2.10;;
60354;SDS011;46198;51.464;-0.066;2022-09-04T10:47:14;8.05;;;2.05;;
60354;SDS011;46198;51.464;-0.066;2022-09-04T10:49:59;3.35;;;1.50;;
60354;SDS011;46198;51.464;-0.066;2022-09-04T10:55:58;4.13;;;2.00;;
60354;SDS011;46198;51.464;-0.066;2022-09-04T10:58:38;5.95;;;2.00;;
60354;SDS011;46198;51.464;-0.066;2022-09-04T11:01:36;6.18;;;1.88;;
60354;SDS011;46198;51.464;-0.066;2022-09-04T11:13:41;7.85;;;1.85;;
60354;SDS011;46198;51.464;-0.066;2022-09-04T11:16:36;9.25;;;2.25;;
60354;SDS011;46198;51.464;-0.066;2022-09-04T11:25:18;7.32;;;2.08;;
60354;SDS011;46198;51.464;-0.066;2022-09-04T11:28:01;6.97;;;2.30;;
60354;SDS011;46198;51.464;-0.066;2022-09-04T11:30:55;5.03;;;2.28;;
60354;SDS011;46198;51.464;-0.066;2022-09-04T11:37:01;4.22;;;1.83;;
60354;SDS011;46198;51.464;-0.066;2022-09-04T11:39:53;9.02;;;2.33;;
60354;SDS011;46198;51.464;-0.066;2022-09-04T11:42:57;6.88;;;2.22;;
60354;SDS011;46198;51.464;-0.066;2022-09-04T11:45:55;5.13;;;2.10;;
60354;SDS011;46198;51.464;-0.066;2022-09-04T11:52:05;5.47;;;2.53;;
60354;SDS011;46198;51.464;-0.066;2022-09-04T11:57:43;5.72;;;1.92;;
60354;SDS011;46198;51.464;-0.066;2022-09-04T12:00:23;6.75;;;1.92;;
60354;SDS011;46198;51.464;-0.066;2022-09-04T12:06:07;8.52;;;1.80;;
60354;SDS011;46198;51.464;-0.066;2022-09-04T12:12:01;5.68;;;1.98;;
60354;SDS011;46198;51.464;-0.066;2022-09-04T12:17:45;7.55;;;2.20;;
60354;SDS011;46198;51.464;-0.066;2022-09-04T12:20:42;3.50;;;1.88;;
60354;SDS011;46198;51.464;-0.066;2022-09-04T12:23:34;8.02;;;1.95;;
60354;SDS011;46198;51.464;-0.066;2022-09-04T12:35:53;5.25;;;1.90;;
60354;SDS011;46198;51.464;-0.066;2022-09-04T12:39:01;8.40;;;2.45;;
60354;SDS011;46198;51.464;-0.066;2022-09-04T12:41:50;10.65;;;2.53;;
60354;SDS011;46198;51.464;-0.066;2022-09-04T12:44:30;5.30;;;1.80;;
60354;SDS011;46198;51.464;-0.066;2022-09-04T12:47:09;5.50;;;1.73;;
60354;SDS011;46198;51.464;-0.066;2022-09-04T12:52:39;12.82;;;3.45;;
60354;SDS011;46198;51.464;-0.066;2022-09-04T12:55:36;4.70;;;1.90;;
60354;SDS011;46198;51.464;-0.066;2022-09-04T12:58:15;5.05;;;2.22;;
60354;SDS011;46198;51.464;-0.066;2022-09-04T13:01:01;9.02;;;2.20;;
60354;SDS011;46198;51.464;-0.066;2022-09-04T13:06:18;6.85;;;2.25;;
60354;SDS011;46198;51.464;-0.066;2022-09-04T13:08:58;9.95;;;3.38;;
60354;SDS011;46198;51.464;-0.066;2022-09-04T13:11:39;9.18;;;2.17;;
60354;SDS011;46198;51.464;-0.066;2022-09-04T13:14:33;6.18;;;2.00;;
60354;SDS011;46198;51.464;-0.066;2022-09-04T13:17:32;6.55;;;2.47;;
60354;SDS011;46198;51.464;-0.066;2022-09-04T13:20:14;7.53;;;1.67;;
60354;SDS011;46198;51.464;-0.066;2022-09-04T13:22:51;8.77;;;2.13;;
60354;SDS011;46198;51.464;-0.066;2022-09-04T13:25:33;6.95;;;2.08;;
60354;SDS011;46198;51.464;-0.066;2022-09-04T13:28:11;7.20;;;2.20;;
60354;SDS011;46198;51.464;-0.066;2022-09-04T13:30:51;8.77;;;2.47;;
60354;SDS011;46198;51.464;-0.066;2022-09-04T13:33:27;7.82;;;2.42;;
60354;SDS011;46198;51.464;-0.066;2022-09-04T13:36:17;7.78;;;2.53;;
60354;SDS011;46198;51.464;-0.066;2022-09-04T13:42:09;11.10;;;3.40;;
60354;SDS011;46198;51.464;-0.066;2022-09-04T13:45:05;7.05;;;2.33;;
60354;SDS011;46198;51.464;-0.066;2022-09-04T13:47:39;5.85;;;2.08;;
60354;SDS011;46198;51.464;-0.066;2022-09-04T13:50:17;5.95;;;2.60;;
60354;SDS011;46198;51.464;-0.066;2022-09-04T13:52:53;6.38;;;2.00;;
60354;SDS011;46198;51.464;-0.066;2022-09-04T13:55:26;6.22;;;2.30;;
60354;SDS011;46198;51.464;-0.066;2022-09-04T13:57:59;8.43;;;2.33;;
60354;SDS011;46198;51.464;-0.066;2022-09-04T14:00:40;8.70;;;2.30;;
60354;SDS011;46198;51.464;-0.066;2022-09-04T14:03:13;7.13;;;2.03;;
60354;SDS011;46198;51.464;-0.066;2022-09-04T14:05:53;7.97;;;2.40;;
60354;SDS011;46198;51.464;-0.066;2022-09-04T14:08:21;6.65;;;2.38;;
60354;SDS011;46198;51.464;-0.066;2022-09-04T14:13:59;8.18;;;2.03;;
60354;SDS011;46198;51.464;-0.066;2022-09-04T14:16:52;9.68;;;2.40;;
60354;SDS011;46198;51.464;-0.066;2022-09-04T14:22:00;9.32;;;2.00;;
60354;SDS011;46198;51.464;-0.066;2022-09-04T14:24:49;6.97;;;2.30;;
60354;SDS011;46198;51.464;-0.066;2022-09-04T14:27:26;6.57;;;1.90;;
60354;SDS011;46198;51.464;-0.066;2022-09-04T14:30:02;7.30;;;2.03;;
60354;SDS011;46198;51.464;-0.066;2022-09-04T14:35:34;7.90;;;2.80;;
60354;SDS011;46198;51.464;-0.066;2022-09-04T14:38:22;6.72;;;2.00;;
60354;SDS011;46198;51.464;-0.066;2022-09-04T14:41:04;4.65;;;1.95;;
60354;SDS011;46198;51.464;-0.066;2022-09-04T14:43:41;6.38;;;2.00;;
60354;SDS011;46198;51.464;-0.066;2022-09-04T14:46:31;7.15;;;2.13;;
60354;SDS011;46198;51.464;-0.066;2022-09-04T14:49:05;9.48;;;2.15;;
60354;SDS011;46198;51.464;-0.066;2022-09-04T14:51:37;6.22;;;2.30;;
60354;SDS011;46198;51.464;-0.066;2022-09-04T14:54:12;5.88;;;2.05;;
60354;SDS011;46198;51.464;-0.066;2022-09-04T14:56:44;5.68;;;2.13;;
60354;SDS011;46198;51.464;-0.066;2022-09-04T14:59:16;6.47;;;2.15;;
60354;SDS011;46198;51.464;-0.066;2022-09-04T15:01:55;9.40;;;2.03;;
60354;SDS011;46198;51.464;-0.066;2022-09-04T15:04:31;5.22;;;2.03;;
60354;SDS011;46198;51.464;-0.066;2022-09-04T15:07:15;7.43;;;2.63;;
60354;SDS011;46198;51.464;-0.066;2022-09-04T15:10:02;6.05;;;3.13;;
60354;SDS011;46198;51.464;-0.066;2022-09-04T15:12:36;5.57;;;2.20;;
60354;SDS011;46198;51.464;-0.066;2022-09-04T15:15:09;5.88;;;1.77;;
60354;SDS011;46198;51.464;-0.066;2022-09-04T15:17:44;6.80;;;2.03;;
60354;SDS011;46198;51.464;-0.066;2022-09-04T15:20:20;7.78;;;1.88;;
60354;SDS011;46198;51.464;-0.066;2022-09-04T15:22:52;5.30;;;1.85;;
60354;SDS011;46198;51.464;-0.066;2022-09-04T15:25:31;7.38;;;2.92;;
60354;SDS011;46198;51.464;-0.066;2022-09-04T15:28:26;8.45;;;2.17;;
60354;SDS011;46198;51.464;-0.066;2022-09-04T15:31:08;7.80;;;2.17;;
60354;SDS011;46198;51.464;-0.066;2022-09-04T15:33:42;9.10;;;2.60;;
60354;SDS011;46198;51.464;-0.066;2022-09-04T15:36:15;5.45;;;1.85;;
60354;SDS011;46198;51.464;-0.066;2022-09-04T15:38:47;4.30;;;1.77;;
60354;SDS011;46198;51.464;-0.066;2022-09-04T15:41:21;9.57;;;2.05;;
60354;SDS011;46198;51.464;-0.066;2022-09-04T15:44:07;6.65;;;2.33;;
60354;SDS011;46198;51.464;-0.066;2022-09-04T15:49:20;6.18;;;2.00;;
60354;SDS011;46198;51.464;-0.066;2022-09-04T15:52:02;7.32;;;2.10;;
60354;SDS011;46198;51.464;-0.066;2022-09-04T15:54:50;3.95;;;1.90;;
60354;SDS011;46198;51.464;-0.066;2022-09-04T15:57:28;7.15;;;2.05;;
60354;SDS011;46198;51.464;-0.066;2022-09-04T16:00:08;5.65;;;1.75;;
60354;SDS011;46198;51.464;-0.066;2022-09-04T16:02:43;7.40;;;1.60;;
60354;SDS011;46198;51.464;-0.066;2022-09-04T16:05:21;4.53;;;2.10;;
60354;SDS011;46198;51.464;-0.066;2022-09-04T16:07:57;5.47;;;2.08;;
60354;SDS011;46198;51.464;-0.066;2022-09-04T16:10:40;5.78;;;1.80;;
60354;SDS011;46198;51.464;-0.066;2022-09-04T16:13:30;3.17;;;1.65;;
60354;SDS011;46198;51.464;-0.066;2022-09-04T16:16:05;9.82;;;2.13;;
60354;SDS011;46198;51.464;-0.066;2022-09-04T16:18:39;5.75;;;2.30;;
60354;SDS011;46198;51.464;-0.066;2022-09-04T16:21:19;6.35;;;2.17;;
60354;SDS011;46198;51.464;-0.066;2022-09-04T16:23:58;3.90;;;1.75;;
60354;SDS011;46198;51.464;-0.066;2022-09-04T16:26:34;10.18;;;2.33;;
60354;SDS011;46198;51.464;-0.066;2022-09-04T16:29:05;5.00;;;2.15;;
60354;SDS011;46198;51.464;-0.066;2022-09-04T16:31:40;7.88;;;1.88;;
60354;SDS011;46198;51.464;-0.066;2022-09-04T16:34:19;5.85;;;2.30;;
60354;SDS011;46198;51.464;-0.066;2022-09-04T16:36:52;2.28;;;1.55;;
60354;SDS011;46198;51.464;-0.066;2022-09-04T16:39:30;6.45;;;1.90;;
60354;SDS011;46198;51.464;-0.066;2022-09-04T16:42:09;7.10;;;2.00;;
60354;SDS011;46198;51.464;-0.066;2022-09-04T16:47:18;6.53;;;2.25;;
60354;SDS011;46198;51.464;-0.066;2022-09-04T16:49:52;5.55;;;2.15;;
60354;SDS011;46198;51.464;-0.066;2022-09-04T16:52:28;5.40;;;1.88;;
60354;SDS011;46198;51.464;-0.066;2022-09-04T16:55:12;7.25;;;1.90;;
60354;SDS011;46198;51.464;-0.066;2022-09-04T16:57:53;7.37;;;2.33;;
60354;SDS011;46198;51.464;-0.066;2022-09-04T17:00:46;3.80;;;1.88;;
60354;SDS011;46198;51.464;-0.066;2022-09-04T17:03:52;8.32;;;2.08;;
60354;SDS011;46198;51.464;-0.066;2022-09-04T17:06:41;6.95;;;1.60;;
60354;SDS011;46198;51.464;-0.066;2022-09-04T17:09:39;9.63;;;2.10;;
60354;SDS011;46198;51.464;-0.066;2022-09-04T17:12:17;6.63;;;2.08;;
60354;SDS011;46198;51.464;-0.066;2022-09-04T17:14:53;10.20;;;2.47;;
60354;SDS011;46198;51.464;-0.066;2022-09-04T17:17:32;6.60;;;2.25;;
60354;SDS011;46198;51.464;-0.066;2022-09-04T17:20:07;4.40;;;2.30;;
60354;SDS011;46198;51.464;-0.066;2022-09-04T17:22:41;4.43;;;2.00;;
60354;SDS011;46198;51.464;-0.066;2022-09-04T17:25:35;6.60;;;2.20;;
60354;SDS011;46198;51.464;-0.066;2022-09-04T17:28:34;6.55;;;2.25;;
60354;SDS011;46198;51.464;-0.066;2022-09-04T17:31:34;8.80;;;2.40;;
60354;SDS011;46198;51.464;-0.066;2022-09-04T17:34:14;7.95;;;2.75;;
60354;SDS011;46198;51.464;-0.066;2022-09-04T17:37:30;4.75;;;2.30;;
60354;SDS011;46198;51.464;-0.066;2022-09-04T17:40:24;8.05;;;3.25;;
60354;SDS011;46198;51.464;-0.066;2022-09-04T17:43:22;6.82;;;2.65;;
60354;SDS011;46198;51.464;-0.066;2022-09-04T17:46:03;10.50;;;3.15;;
60354;SDS011;46198;51.464;-0.066;2022-09-04T17:48:42;7.32;;;2.67;;
60354;SDS011;46198;51.464;-0.066;2022-09-04T17:51:14;5.53;;;2.25;;
60354;SDS011;46198;51.464;-0.066;2022-09-04T17:53:46;10.07;;;2.58;;
60354;SDS011;46198;51.464;-0.066;2022-09-04T17:56:23;3.65;;;1.90;;
60354;SDS011;46198;51.464;-0.066;2022-09-04T17:58:56;7.55;;;2.40;;
60354;SDS011;46198;51.464;-0.066;2022-09-04T18:01:34;6.68;;;2.33;;
60354;SDS011;46198;51.464;-0.066;2022-09-04T18:04:12;5.20;;;2.30;;
60354;SDS011;46198;51.464;-0.066;2022-09-04T18:06:53;6.47;;;2.50;;
60354;SDS011;46198;51.464;-0.066;2022-09-04T18:09:53;5.90;;;2.65;;
60354;SDS011;46198;51.464;-0.066;2022-09-04T18:12:30;6.78;;;2.53;;
60354;SDS011;46198;51.464;-0.066;2022-09-04T18:15:06;6.45;;;2.42;;
60354;SDS011;46198;51.464;-0.066;2022-09-04T18:18:01;5.25;;;2.25;;
60354;SDS011;46198;51.464;-0.066;2022-09-04T18:20:38;4.80;;;2.33;;
60354;SDS011;46198;51.464;-0.066;2022-09-04T18:26:20;7.18;;;2.63;;
60354;SDS011;46198;51.464;-0.066;2022-09-04T18:32:23;5.43;;;2.55;;
60354;SDS011;46198;51.464;-0.066;2022-09-04T18:35:20;5.03;;;2.13;;
60354;SDS011;46198;51.464;-0.066;2022-09-04T18:38:14;7.72;;;2.58;;
60354;SDS011;46198;51.464;-0.066;2022-09-04T18:40:52;10.52;;;2.50;;
60354;SDS011;46198;51.464;-0.066;2022-09-04T18:44:32;7.75;;;2.03;;
60354;SDS011;46198;51.464;-0.066;2022-09-04T18:47:48;3.97;;;2.35;;
60354;SDS011;46198;51.464;-0.066;2022-09-04T18:50:40;5.00;;;2.35;;
60354;SDS011;46198;51.464;-0.066;2022-09-04T18:53:41;6.38;;;2.78;;
60354;SDS011;46198;51.464;-0.066;2022-09-04T18:56:15;4.78;;;2.20;;
60354;SDS011;46198;51.464;-0.066;2022-09-04T18:58:55;5.07;;;2.67;;
60354;SDS011;46198;51.464;-0.066;2022-09-04T19:01:30;4.47;;;2.20;;
60354;SDS011;46198;51.464;-0.066;2022-09-04T19:07:15;6.65;;;2.60;;